Terminal Aerodrome Forecast
Issued by NWS Upton, NY

Home | Current Version | Previous Version | Text Only | Print | Product List | Glossary On
Versions: 1 2 3 4 5 6 7 8 9 10 11 12 13 14 15 16 17 18 19 20 21 22 23 24 25 26 27 28 29 30 31
896
FTUS41 KOKX 261720
TAFJFK
TAF
KJFK 261720Z 2618/2724 17008KT P6SM FEW020 BKN250
     FM270100 12005KT P6SM SCT007 BKN250
     FM270300 09005KT 6SM BR BKN007
     FM270700 05005KT 3SM BR BKN005
     FM271400 06006KT P6SM SCT005 SCT100
     FM271800 14008KT P6SM FEW020 SCT100=

USA.gov is the U.S. government's official web portal to all federal, state and local government web resources and services.